Terminal Aerodrome Forecast
Issued by NWS

Home | Current Version | Previous Version | Text Only | Print | Product List | Glossary On
Versions: 1 2 3 4 5 6 7 8 9 10 11 12
288
FTUS46 KLOX 210535
TAFBUR
TAF
KBUR 210535Z 2106/2206 13006KT P6SM SKC
     FM211100 VRB03KT P6SM SKC
     FM211800 14005KT P6SM SKC
     FM212100 18008KT P6SM SKC
     FM220500 VRB03KT P6SM SKC=

USA.gov is the U.S. government's official web portal to all federal, state and local government web resources and services.